sensor_id;sensor_type;location;lat;lon;timestamp;P1;durP1;ratioP1;P2;durP2;ratioP2
47413;SDS011;33163;0.000;0.000;2023-02-28T00:01:05;2.75;;;1.58;;
47413;SDS011;33163;0.000;0.000;2023-02-28T00:03:32;2.63;;;1.58;;
47413;SDS011;33163;0.000;0.000;2023-02-28T00:06:00;4.00;;;1.73;;
47413;SDS011;33163;0.000;0.000;2023-02-28T00:08:27;4.05;;;1.80;;
47413;SDS011;33163;0.000;0.000;2023-02-28T00:10:54;2.45;;;1.60;;
47413;SDS011;33163;0.000;0.000;2023-02-28T00:13:21;2.95;;;1.58;;
47413;SDS011;33163;0.000;0.000;2023-02-28T00:15:50;2.55;;;1.73;;
47413;SDS011;33163;0.000;0.000;2023-02-28T00:18:25;2.10;;;1.63;;
47413;SDS011;33163;0.000;0.000;2023-02-28T00:20:51;2.17;;;1.38;;
47413;SDS011;33163;0.000;0.000;2023-02-28T00:23:18;5.47;;;1.75;;
47413;SDS011;33163;0.000;0.000;2023-02-28T00:25:45;2.47;;;1.40;;
47413;SDS011;33163;0.000;0.000;2023-02-28T00:28:12;2.75;;;1.45;;
47413;SDS011;33163;0.000;0.000;2023-02-28T00:30:38;1.80;;;1.35;;
47413;SDS011;33163;0.000;0.000;2023-02-28T00:33:07;2.53;;;1.60;;
47413;SDS011;33163;0.000;0.000;2023-02-28T00:35:33;2.10;;;1.50;;
47413;SDS011;33163;0.000;0.000;2023-02-28T00:38:00;2.67;;;1.60;;
47413;SDS011;33163;0.000;0.000;2023-02-28T00:40:27;3.67;;;1.88;;
47413;SDS011;33163;0.000;0.000;2023-02-28T00:42:54;3.22;;;1.50;;
47413;SDS011;33163;0.000;0.000;2023-02-28T00:45:21;3.80;;;1.52;;
47413;SDS011;33163;0.000;0.000;2023-02-28T00:47:47;4.95;;;1.67;;
47413;SDS011;33163;0.000;0.000;2023-02-28T00:50:16;2.08;;;1.35;;
47413;SDS011;33163;0.000;0.000;2023-02-28T00:52:44;5.13;;;1.85;;
47413;SDS011;33163;0.000;0.000;2023-02-28T00:55:11;2.20;;;1.70;;
47413;SDS011;33163;0.000;0.000;2023-02-28T00:57:37;2.17;;;1.38;;
47413;SDS011;33163;0.000;0.000;2023-02-28T01:00:05;3.10;;;1.58;;
47413;SDS011;33163;0.000;0.000;2023-02-28T01:02:33;3.40;;;1.52;;
47413;SDS011;33163;0.000;0.000;2023-02-28T01:05:00;2.92;;;1.33;;
47413;SDS011;33163;0.000;0.000;2023-02-28T01:07:28;3.28;;;1.50;;
47413;SDS011;33163;0.000;0.000;2023-02-28T01:09:55;2.92;;;1.60;;
47413;SDS011;33163;0.000;0.000;2023-02-28T01:12:22;2.58;;;1.48;;
47413;SDS011;33163;0.000;0.000;2023-02-28T01:14:49;1.83;;;1.42;;
47413;SDS011;33163;0.000;0.000;2023-02-28T01:17:15;1.30;;;1.20;;
47413;SDS011;33163;0.000;0.000;2023-02-28T01:19:42;4.63;;;1.95;;
47413;SDS011;33163;0.000;0.000;2023-02-28T01:22:09;2.78;;;1.42;;
47413;SDS011;33163;0.000;0.000;2023-02-28T01:24:37;4.72;;;2.00;;
47413;SDS011;33163;0.000;0.000;2023-02-28T01:27:04;1.52;;;1.20;;
47413;SDS011;33163;0.000;0.000;2023-02-28T01:29:30;3.95;;;1.67;;
47413;SDS011;33163;0.000;0.000;2023-02-28T01:31:57;3.03;;;1.75;;
47413;SDS011;33163;0.000;0.000;2023-02-28T01:34:25;2.50;;;1.40;;
47413;SDS011;33163;0.000;0.000;2023-02-28T01:36:51;4.25;;;1.48;;
47413;SDS011;33163;0.000;0.000;2023-02-28T01:39:18;3.30;;;1.30;;
47413;SDS011;33163;0.000;0.000;2023-02-28T01:41:46;2.38;;;1.50;;
47413;SDS011;33163;0.000;0.000;2023-02-28T01:47:19;3.10;;;1.55;;
47413;SDS011;33163;0.000;0.000;2023-02-28T01:49:46;2.47;;;1.30;;
47413;SDS011;33163;0.000;0.000;2023-02-28T01:52:14;2.50;;;1.52;;
47413;SDS011;33163;0.000;0.000;2023-02-28T01:54:43;1.85;;;1.45;;
47413;SDS011;33163;0.000;0.000;2023-02-28T01:57:17;3.17;;;1.77;;
47413;SDS011;33163;0.000;0.000;2023-02-28T01:59:47;2.15;;;1.20;;
47413;SDS011;33163;0.000;0.000;2023-02-28T02:02:18;3.00;;;1.33;;
47413;SDS011;33163;0.000;0.000;2023-02-28T02:04:50;1.33;;;1.23;;
47413;SDS011;33163;0.000;0.000;2023-02-28T02:07:20;3.47;;;1.63;;
47413;SDS011;33163;0.000;0.000;2023-02-28T02:09:48;3.33;;;1.35;;
47413;SDS011;33163;0.000;0.000;2023-02-28T02:12:19;1.33;;;0.98;;
47413;SDS011;33163;0.000;0.000;2023-02-28T02:14:57;1.27;;;1.17;;
47413;SDS011;33163;0.000;0.000;2023-02-28T02:20:09;3.50;;;1.38;;
47413;SDS011;33163;0.000;0.000;2023-02-28T02:23:24;1.80;;;1.20;;
47413;SDS011;33163;0.000;0.000;2023-02-28T02:26:19;6.88;;;1.60;;
47413;SDS011;33163;0.000;0.000;2023-02-28T02:29:26;2.92;;;1.40;;
47413;SDS011;33163;0.000;0.000;2023-02-28T02:35:13;2.38;;;1.13;;
47413;SDS011;33163;0.000;0.000;2023-02-28T02:37:43;2.58;;;1.48;;
47413;SDS011;33163;0.000;0.000;2023-02-28T02:40:17;2.55;;;1.65;;
47413;SDS011;33163;0.000;0.000;2023-02-28T02:42:50;4.25;;;1.52;;
47413;SDS011;33163;0.000;0.000;2023-02-28T02:45:23;2.05;;;1.23;;
47413;SDS011;33163;0.000;0.000;2023-02-28T02:47:53;4.57;;;1.35;;
47413;SDS011;33163;0.000;0.000;2023-02-28T02:50:24;3.05;;;1.40;;
47413;SDS011;33163;0.000;0.000;2023-02-28T02:52:55;2.22;;;1.50;;
47413;SDS011;33163;0.000;0.000;2023-02-28T02:55:24;2.33;;;1.45;;
47413;SDS011;33163;0.000;0.000;2023-02-28T02:57:52;2.22;;;1.75;;
47413;SDS011;33163;0.000;0.000;2023-02-28T03:00:23;3.08;;;1.20;;
47413;SDS011;33163;0.000;0.000;2023-02-28T03:02:52;2.80;;;1.20;;
47413;SDS011;33163;0.000;0.000;2023-02-28T03:05:23;5.25;;;1.58;;
47413;SDS011;33163;0.000;0.000;2023-02-28T03:07:52;3.60;;;1.38;;
47413;SDS011;33163;0.000;0.000;2023-02-28T03:10:26;4.22;;;1.38;;
47413;SDS011;33163;0.000;0.000;2023-02-28T03:12:57;1.58;;;1.45;;
47413;SDS011;33163;0.000;0.000;2023-02-28T03:15:35;3.15;;;1.13;;
47413;SDS011;33163;0.000;0.000;2023-02-28T03:18:15;2.97;;;1.45;;
47413;SDS011;33163;0.000;0.000;2023-02-28T03:20:51;2.63;;;1.45;;
47413;SDS011;33163;0.000;0.000;2023-02-28T03:23:27;2.13;;;1.10;;
47413;SDS011;33163;0.000;0.000;2023-02-28T03:26:02;2.60;;;1.73;;
47413;SDS011;33163;0.000;0.000;2023-02-28T03:28:32;2.10;;;1.13;;
47413;SDS011;33163;0.000;0.000;2023-02-28T03:31:07;5.13;;;1.30;;
47413;SDS011;33163;0.000;0.000;2023-02-28T03:33:39;3.13;;;1.20;;
47413;SDS011;33163;0.000;0.000;2023-02-28T03:36:12;2.08;;;1.70;;
47413;SDS011;33163;0.000;0.000;2023-02-28T03:38:44;2.78;;;1.65;;
47413;SDS011;33163;0.000;0.000;2023-02-28T03:41:14;4.28;;;1.20;;
47413;SDS011;33163;0.000;0.000;2023-02-28T03:43:47;1.67;;;1.27;;
47413;SDS011;33163;0.000;0.000;2023-02-28T03:46:18;2.22;;;1.40;;
47413;SDS011;33163;0.000;0.000;2023-02-28T03:48:49;3.47;;;1.40;;
47413;SDS011;33163;0.000;0.000;2023-02-28T03:51:21;3.65;;;1.65;;
47413;SDS011;33163;0.000;0.000;2023-02-28T03:53:50;3.13;;;1.38;;
47413;SDS011;33163;0.000;0.000;2023-02-28T03:56:20;2.25;;;1.25;;
47413;SDS011;33163;0.000;0.000;2023-02-28T03:58:53;1.92;;;1.40;;
47413;SDS011;33163;0.000;0.000;2023-02-28T04:01:25;4.35;;;1.58;;
47413;SDS011;33163;0.000;0.000;2023-02-28T04:03:56;1.95;;;1.40;;
47413;SDS011;33163;0.000;0.000;2023-02-28T04:06:24;3.85;;;1.73;;
47413;SDS011;33163;0.000;0.000;2023-02-28T04:08:52;2.78;;;1.05;;
47413;SDS011;33163;0.000;0.000;2023-02-28T04:11:20;3.03;;;1.40;;
47413;SDS011;33163;0.000;0.000;2023-02-28T04:13:49;4.10;;;1.55;;
47413;SDS011;33163;0.000;0.000;2023-02-28T04:16:15;3.53;;;1.60;;
47413;SDS011;33163;0.000;0.000;2023-02-28T04:18:42;4.60;;;1.35;;
47413;SDS011;33163;0.000;0.000;2023-02-28T04:21:09;3.78;;;1.40;;
47413;SDS011;33163;0.000;0.000;2023-02-28T04:23:38;3.00;;;1.30;;
47413;SDS011;33163;0.000;0.000;2023-02-28T04:26:05;4.32;;;1.40;;
47413;SDS011;33163;0.000;0.000;2023-02-28T04:28:32;3.55;;;1.55;;
47413;SDS011;33163;0.000;0.000;2023-02-28T04:31:00;2.70;;;1.00;;
47413;SDS011;33163;0.000;0.000;2023-02-28T04:33:30;2.90;;;1.27;;
47413;SDS011;33163;0.000;0.000;2023-02-28T04:35:58;3.55;;;1.17;;
47413;SDS011;33163;0.000;0.000;2023-02-28T04:38:27;3.75;;;1.40;;
47413;SDS011;33163;0.000;0.000;2023-02-28T04:40:57;2.22;;;1.10;;
47413;SDS011;33163;0.000;0.000;2023-02-28T04:43:25;4.68;;;1.50;;
47413;SDS011;33163;0.000;0.000;2023-02-28T04:45:52;4.20;;;2.00;;
47413;SDS011;33163;0.000;0.000;2023-02-28T04:48:19;4.85;;;1.73;;
47413;SDS011;33163;0.000;0.000;2023-02-28T04:50:46;1.73;;;1.17;;
47413;SDS011;33163;0.000;0.000;2023-02-28T04:53:12;2.17;;;1.20;;
47413;SDS011;33163;0.000;0.000;2023-02-28T04:55:39;3.05;;;1.40;;
47413;SDS011;33163;0.000;0.000;2023-02-28T04:58:07;4.15;;;1.30;;
47413;SDS011;33163;0.000;0.000;2023-02-28T05:00:34;3.80;;;1.30;;
47413;SDS011;33163;0.000;0.000;2023-02-28T05:03:01;2.88;;;1.45;;
47413;SDS011;33163;0.000;0.000;2023-02-28T05:05:28;1.90;;;1.20;;
47413;SDS011;33163;0.000;0.000;2023-02-28T05:07:54;6.07;;;1.40;;
47413;SDS011;33163;0.000;0.000;2023-02-28T05:10:22;3.90;;;1.60;;
47413;SDS011;33163;0.000;0.000;2023-02-28T05:12:49;3.50;;;1.33;;
47413;SDS011;33163;0.000;0.000;2023-02-28T05:15:17;2.70;;;1.65;;
47413;SDS011;33163;0.000;0.000;2023-02-28T05:17:44;2.75;;;1.30;;
47413;SDS011;33163;0.000;0.000;2023-02-28T05:20:12;1.83;;;1.20;;
47413;SDS011;33163;0.000;0.000;2023-02-28T05:22:39;3.03;;;1.30;;
47413;SDS011;33163;0.000;0.000;2023-02-28T05:25:08;1.52;;;1.20;;
47413;SDS011;33163;0.000;0.000;2023-02-28T05:27:37;3.10;;;1.55;;
47413;SDS011;33163;0.000;0.000;2023-02-28T05:30:04;1.70;;;1.25;;
47413;SDS011;33163;0.000;0.000;2023-02-28T05:32:36;2.78;;;1.40;;
47413;SDS011;33163;0.000;0.000;2023-02-28T05:35:03;3.67;;;1.45;;
47413;SDS011;33163;0.000;0.000;2023-02-28T05:37:31;1.83;;;1.05;;
47413;SDS011;33163;0.000;0.000;2023-02-28T05:39:57;1.40;;;1.20;;
47413;SDS011;33163;0.000;0.000;2023-02-28T05:42:24;4.40;;;1.20;;
47413;SDS011;33163;0.000;0.000;2023-02-28T05:44:51;3.90;;;1.30;;
47413;SDS011;33163;0.000;0.000;2023-02-28T05:47:18;3.42;;;1.63;;
47413;SDS011;33163;0.000;0.000;2023-02-28T05:49:46;3.35;;;1.42;;
47413;SDS011;33163;0.000;0.000;2023-02-28T05:52:12;2.33;;;1.00;;
47413;SDS011;33163;0.000;0.000;2023-02-28T05:54:39;2.28;;;1.40;;
47413;SDS011;33163;0.000;0.000;2023-02-28T05:57:06;3.08;;;1.50;;
47413;SDS011;33163;0.000;0.000;2023-02-28T05:59:33;1.42;;;1.17;;
47413;SDS011;33163;0.000;0.000;2023-02-28T06:02:00;2.55;;;1.52;;
47413;SDS011;33163;0.000;0.000;2023-02-28T06:04:26;1.75;;;1.30;;
47413;SDS011;33163;0.000;0.000;2023-02-28T06:06:54;1.23;;;1.00;;
47413;SDS011;33163;0.000;0.000;2023-02-28T06:09:22;1.98;;;1.30;;
47413;SDS011;33163;0.000;0.000;2023-02-28T06:11:50;2.75;;;1.30;;
47413;SDS011;33163;0.000;0.000;2023-02-28T06:14:17;2.97;;;1.13;;
47413;SDS011;33163;0.000;0.000;2023-02-28T06:16:45;3.40;;;1.55;;
47413;SDS011;33163;0.000;0.000;2023-02-28T06:19:12;1.95;;;1.15;;
47413;SDS011;33163;0.000;0.000;2023-02-28T06:21:40;2.83;;;1.35;;
47413;SDS011;33163;0.000;0.000;2023-02-28T06:24:08;1.88;;;1.00;;
47413;SDS011;33163;0.000;0.000;2023-02-28T06:26:35;1.65;;;1.08;;
47413;SDS011;33163;0.000;0.000;2023-02-28T06:29:02;1.00;;;0.85;;
47413;SDS011;33163;0.000;0.000;2023-02-28T06:31:29;3.60;;;1.40;;
47413;SDS011;33163;0.000;0.000;2023-02-28T06:33:55;1.98;;;1.40;;
47413;SDS011;33163;0.000;0.000;2023-02-28T06:36:22;1.98;;;1.23;;
47413;SDS011;33163;0.000;0.000;2023-02-28T06:38:49;4.22;;;1.38;;
47413;SDS011;33163;0.000;0.000;2023-02-28T06:41:21;2.08;;;1.52;;
47413;SDS011;33163;0.000;0.000;2023-02-28T06:43:48;3.10;;;1.23;;
47413;SDS011;33163;0.000;0.000;2023-02-28T06:46:15;2.80;;;1.10;;
47413;SDS011;33163;0.000;0.000;2023-02-28T06:48:42;1.40;;;1.13;;
47413;SDS011;33163;0.000;0.000;2023-02-28T06:51:11;2.95;;;1.55;;
47413;SDS011;33163;0.000;0.000;2023-02-28T06:53:40;1.50;;;1.10;;
47413;SDS011;33163;0.000;0.000;2023-02-28T06:56:07;2.63;;;1.40;;
47413;SDS011;33163;0.000;0.000;2023-02-28T06:58:37;2.22;;;1.13;;
47413;SDS011;33163;0.000;0.000;2023-02-28T07:01:05;2.47;;;1.30;;
47413;SDS011;33163;0.000;0.000;2023-02-28T07:03:32;2.60;;;1.33;;
47413;SDS011;33163;0.000;0.000;2023-02-28T07:06:01;2.55;;;1.30;;
47413;SDS011;33163;0.000;0.000;2023-02-28T07:08:29;1.15;;;1.05;;
47413;SDS011;33163;0.000;0.000;2023-02-28T07:10:56;3.13;;;1.00;;
47413;SDS011;33163;0.000;0.000;2023-02-28T07:13:23;2.67;;;1.20;;
47413;SDS011;33163;0.000;0.000;2023-02-28T07:15:55;2.20;;;1.40;;
47413;SDS011;33163;0.000;0.000;2023-02-28T07:18:22;2.35;;;1.00;;
47413;SDS011;33163;0.000;0.000;2023-02-28T07:20:50;2.22;;;1.25;;
47413;SDS011;33163;0.000;0.000;2023-02-28T07:23:17;2.80;;;1.20;;
47413;SDS011;33163;0.000;0.000;2023-02-28T07:25:44;1.98;;;1.50;;
47413;SDS011;33163;0.000;0.000;2023-02-28T07:28:11;2.72;;;1.20;;
47413;SDS011;33163;0.000;0.000;2023-02-28T07:30:39;1.92;;;1.27;;
47413;SDS011;33163;0.000;0.000;2023-02-28T07:33:07;3.40;;;1.00;;
47413;SDS011;33163;0.000;0.000;2023-02-28T07:35:34;1.75;;;0.80;;
47413;SDS011;33163;0.000;0.000;2023-02-28T07:38:01;1.73;;;1.10;;
47413;SDS011;33163;0.000;0.000;2023-02-28T07:40:28;2.28;;;1.17;;
47413;SDS011;33163;0.000;0.000;2023-02-28T07:42:55;2.10;;;1.30;;
47413;SDS011;33163;0.000;0.000;2023-02-28T07:45:22;1.98;;;1.25;;
47413;SDS011;33163;0.000;0.000;2023-02-28T07:47:49;2.65;;;1.10;;
47413;SDS011;33163;0.000;0.000;2023-02-28T07:50:17;2.22;;;1.23;;
47413;SDS011;33163;0.000;0.000;2023-02-28T07:52:44;1.98;;;1.10;;
47413;SDS011;33163;0.000;0.000;2023-02-28T07:55:10;4.65;;;1.50;;
47413;SDS011;33163;0.000;0.000;2023-02-28T07:57:38;2.45;;;1.27;;
47413;SDS011;33163;0.000;0.000;2023-02-28T08:00:06;1.80;;;1.10;;
47413;SDS011;33163;0.000;0.000;2023-02-28T08:02:38;2.78;;;1.00;;
47413;SDS011;33163;0.000;0.000;2023-02-28T08:05:06;3.83;;;1.20;;
47413;SDS011;33163;0.000;0.000;2023-02-28T08:07:35;4.05;;;1.63;;
47413;SDS011;33163;0.000;0.000;2023-02-28T08:10:02;3.40;;;1.25;;
47413;SDS011;33163;0.000;0.000;2023-02-28T08:12:30;2.47;;;1.52;;
47413;SDS011;33163;0.000;0.000;2023-02-28T08:14:57;2.35;;;1.05;;
47413;SDS011;33163;0.000;0.000;2023-02-28T08:17:24;1.80;;;1.25;;
47413;SDS011;33163;0.000;0.000;2023-02-28T08:19:50;1.42;;;1.30;;
47413;SDS011;33163;0.000;0.000;2023-02-28T08:22:17;2.90;;;1.10;;
47413;SDS011;33163;0.000;0.000;2023-02-28T08:24:45;2.17;;;1.23;;
47413;SDS011;33163;0.000;0.000;2023-02-28T08:27:12;1.73;;;1.10;;
47413;SDS011;33163;0.000;0.000;2023-02-28T08:29:39;2.03;;;1.23;;
47413;SDS011;33163;0.000;0.000;2023-02-28T08:32:06;1.95;;;1.15;;
47413;SDS011;33163;0.000;0.000;2023-02-28T08:34:33;1.38;;;1.10;;
47413;SDS011;33163;0.000;0.000;2023-02-28T08:37:00;2.72;;;1.23;;
47413;SDS011;33163;0.000;0.000;2023-02-28T08:39:27;4.47;;;1.20;;
47413;SDS011;33163;0.000;0.000;2023-02-28T08:41:55;1.20;;;1.02;;
47413;SDS011;33163;0.000;0.000;2023-02-28T08:44:21;1.45;;;1.08;;
47413;SDS011;33163;0.000;0.000;2023-02-28T08:46:48;1.55;;;1.05;;
47413;SDS011;33163;0.000;0.000;2023-02-28T08:49:15;1.75;;;1.17;;
47413;SDS011;33163;0.000;0.000;2023-02-28T08:51:42;2.10;;;1.40;;
47413;SDS011;33163;0.000;0.000;2023-02-28T08:54:08;2.00;;;0.98;;
47413;SDS011;33163;0.000;0.000;2023-02-28T08:56:37;3.92;;;1.10;;
47413;SDS011;33163;0.000;0.000;2023-02-28T08:59:06;1.10;;;1.00;;
47413;SDS011;33163;0.000;0.000;2023-02-28T09:01:34;1.90;;;0.88;;
47413;SDS011;33163;0.000;0.000;2023-02-28T09:04:02;1.45;;;1.27;;
47413;SDS011;33163;0.000;0.000;2023-02-28T09:06:29;2.03;;;0.98;;
47413;SDS011;33163;0.000;0.000;2023-02-28T09:08:56;1.52;;;0.90;;
47413;SDS011;33163;0.000;0.000;2023-02-28T09:11:24;1.40;;;1.10;;
47413;SDS011;33163;0.000;0.000;2023-02-28T09:13:51;1.30;;;1.20;;
47413;SDS011;33163;0.000;0.000;2023-02-28T09:16:19;3.50;;;1.05;;
47413;SDS011;33163;0.000;0.000;2023-02-28T09:18:46;2.25;;;1.15;;
47413;SDS011;33163;0.000;0.000;2023-02-28T09:21:15;1.80;;;1.00;;
47413;SDS011;33163;0.000;0.000;2023-02-28T09:23:43;1.65;;;1.05;;
47413;SDS011;33163;0.000;0.000;2023-02-28T09:26:13;1.30;;;0.93;;
47413;SDS011;33163;0.000;0.000;2023-02-28T09:28:40;1.60;;;1.08;;
47413;SDS011;33163;0.000;0.000;2023-02-28T09:31:10;1.05;;;0.95;;
47413;SDS011;33163;0.000;0.000;2023-02-28T09:33:40;1.45;;;1.10;;
47413;SDS011;33163;0.000;0.000;2023-02-28T09:36:07;1.40;;;0.93;;
47413;SDS011;33163;0.000;0.000;2023-02-28T09:38:34;1.95;;;0.90;;
47413;SDS011;33163;0.000;0.000;2023-02-28T09:41:02;0.90;;;0.90;;
47413;SDS011;33163;0.000;0.000;2023-02-28T09:43:37;3.08;;;1.10;;
47413;SDS011;33163;0.000;0.000;2023-02-28T09:46:08;1.15;;;1.00;;
47413;SDS011;33163;0.000;0.000;2023-02-28T09:48:45;2.83;;;1.13;;
47413;SDS011;33163;0.000;0.000;2023-02-28T09:51:15;1.35;;;1.00;;
47413;SDS011;33163;0.000;0.000;2023-02-28T09:53:54;1.27;;;1.17;;
47413;SDS011;33163;0.000;0.000;2023-02-28T09:56:21;1.58;;;0.73;;
47413;SDS011;33163;0.000;0.000;2023-02-28T09:58:53;1.00;;;1.00;;
47413;SDS011;33163;0.000;0.000;2023-02-28T10:01:24;1.13;;;0.90;;
47413;SDS011;33163;0.000;0.000;2023-02-28T10:03:59;2.08;;;1.23;;
47413;SDS011;33163;0.000;0.000;2023-02-28T10:06:32;1.42;;;1.02;;
47413;SDS011;33163;0.000;0.000;2023-02-28T10:09:03;1.65;;;1.00;;
47413;SDS011;33163;0.000;0.000;2023-02-28T10:11:35;1.20;;;1.10;;
47413;SDS011;33163;0.000;0.000;2023-02-28T10:14:04;1.80;;;1.10;;
47413;SDS011;33163;0.000;0.000;2023-02-28T10:16:40;1.38;;;1.10;;
47413;SDS011;33163;0.000;0.000;2023-02-28T10:19:14;1.52;;;0.90;;
47413;SDS011;33163;0.000;0.000;2023-02-28T10:21:46;1.25;;;1.02;;
47413;SDS011;33163;0.000;0.000;2023-02-28T10:24:20;1.42;;;1.13;;
47413;SDS011;33163;0.000;0.000;2023-02-28T10:26:53;3.47;;;1.30;;
47413;SDS011;33163;0.000;0.000;2023-02-28T10:29:25;1.88;;;1.05;;
47413;SDS011;33163;0.000;0.000;2023-02-28T10:31:52;1.48;;;1.00;;
47413;SDS011;33163;0.000;0.000;2023-02-28T10:34:21;1.23;;;1.10;;
47413;SDS011;33163;0.000;0.000;2023-02-28T10:36:48;0.95;;;0.95;;
47413;SDS011;33163;0.000;0.000;2023-02-28T10:39:35;1.10;;;0.90;;
47413;SDS011;33163;0.000;0.000;2023-02-28T10:42:03;2.25;;;1.17;;
47413;SDS011;33163;0.000;0.000;2023-02-28T10:44:30;1.65;;;1.00;;
47413;SDS011;33163;0.000;0.000;2023-02-28T10:46:57;1.65;;;1.00;;
47413;SDS011;33163;0.000;0.000;2023-02-28T10:49:26;1.40;;;1.05;;
47413;SDS011;33163;0.000;0.000;2023-02-28T10:51:55;1.38;;;1.10;;
47413;SDS011;33163;0.000;0.000;2023-02-28T10:54:28;1.27;;;1.00;;
47413;SDS011;33163;0.000;0.000;2023-02-28T10:57:05;1.92;;;1.00;;
47413;SDS011;33163;0.000;0.000;2023-02-28T11:02:01;0.82;;;0.80;;
47413;SDS011;33163;0.000;0.000;2023-02-28T11:04:33;1.33;;;0.95;;
47413;SDS011;33163;0.000;0.000;2023-02-28T11:07:03;4.55;;;1.00;;
47413;SDS011;33163;0.000;0.000;2023-02-28T11:09:33;2.30;;;1.10;;
47413;SDS011;33163;0.000;0.000;2023-02-28T11:12:01;0.85;;;0.85;;
47413;SDS011;33163;0.000;0.000;2023-02-28T11:14:31;2.90;;;1.08;;
47413;SDS011;33163;0.000;0.000;2023-02-28T11:17:03;1.45;;;0.90;;
47413;SDS011;33163;0.000;0.000;2023-02-28T11:19:44;1.63;;;0.90;;
47413;SDS011;33163;0.000;0.000;2023-02-28T11:22:15;1.42;;;1.00;;
47413;SDS011;33163;0.000;0.000;2023-02-28T11:24:45;1.27;;;0.85;;
47413;SDS011;33163;0.000;0.000;2023-02-28T11:27:25;0.70;;;0.70;;
47413;SDS011;33163;0.000;0.000;2023-02-28T11:30:13;1.98;;;0.80;;
47413;SDS011;33163;0.000;0.000;2023-02-28T11:32:50;1.65;;;1.13;;
47413;SDS011;33163;0.000;0.000;2023-02-28T11:35:21;1.20;;;0.80;;
47413;SDS011;33163;0.000;0.000;2023-02-28T11:37:52;1.30;;;0.75;;
47413;SDS011;33163;0.000;0.000;2023-02-28T11:40:22;0.95;;;0.75;;
47413;SDS011;33163;0.000;0.000;2023-02-28T11:42:57;1.10;;;1.00;;
47413;SDS011;33163;0.000;0.000;2023-02-28T11:45:42;0.95;;;0.88;;
47413;SDS011;33163;0.000;0.000;2023-02-28T11:48:18;1.35;;;0.98;;
47413;SDS011;33163;0.000;0.000;2023-02-28T11:51:00;0.90;;;0.82;;
47413;SDS011;33163;0.000;0.000;2023-02-28T11:56:10;2.60;;;1.38;;
47413;SDS011;33163;0.000;0.000;2023-02-28T11:58:49;1.52;;;1.00;;
47413;SDS011;33163;0.000;0.000;2023-02-28T12:01:27;0.82;;;0.80;;
47413;SDS011;33163;0.000;0.000;2023-02-28T12:04:04;1.83;;;1.00;;
47413;SDS011;33163;0.000;0.000;2023-02-28T12:06:45;0.85;;;0.85;;
47413;SDS011;33163;0.000;0.000;2023-02-28T12:09:29;0.85;;;0.85;;
47413;SDS011;33163;0.000;0.000;2023-02-28T12:12:04;1.90;;;1.00;;
47413;SDS011;33163;0.000;0.000;2023-02-28T12:17:45;0.70;;;0.70;;
47413;SDS011;33163;0.000;0.000;2023-02-28T12:20:29;1.33;;;0.90;;
47413;SDS011;33163;0.000;0.000;2023-02-28T12:23:06;1.08;;;0.60;;
47413;SDS011;33163;0.000;0.000;2023-02-28T12:25:49;3.05;;;0.90;;
47413;SDS011;33163;0.000;0.000;2023-02-28T12:28:27;1.55;;;0.90;;
47413;SDS011;33163;0.000;0.000;2023-02-28T12:30:58;1.00;;;0.90;;
47413;SDS011;33163;0.000;0.000;2023-02-28T12:33:28;1.75;;;0.82;;
47413;SDS011;33163;0.000;0.000;2023-02-28T12:36:01;0.75;;;0.75;;
47413;SDS011;33163;0.000;0.000;2023-02-28T12:38:34;1.10;;;0.95;;
47413;SDS011;33163;0.000;0.000;2023-02-28T12:41:05;0.88;;;0.70;;
47413;SDS011;33163;0.000;0.000;2023-02-28T12:43:40;1.00;;;0.73;;
47413;SDS011;33163;0.000;0.000;2023-02-28T12:46:12;1.17;;;0.90;;
47413;SDS011;33163;0.000;0.000;2023-02-28T12:48:46;0.82;;;0.77;;
47413;SDS011;33163;0.000;0.000;2023-02-28T12:51:14;0.88;;;0.80;;
47413;SDS011;33163;0.000;0.000;2023-02-28T12:53:47;0.65;;;0.65;;
47413;SDS011;33163;0.000;0.000;2023-02-28T12:56:22;1.00;;;0.93;;
47413;SDS011;33163;0.000;0.000;2023-02-28T12:58:56;2.92;;;0.85;;
47413;SDS011;33163;0.000;0.000;2023-02-28T13:01:30;1.45;;;0.95;;
47413;SDS011;33163;0.000;0.000;2023-02-28T13:04:14;1.02;;;0.70;;
47413;SDS011;33163;0.000;0.000;2023-02-28T13:07:24;1.70;;;0.85;;
47413;SDS011;33163;0.000;0.000;2023-02-28T13:10:04;2.17;;;1.00;;
47413;SDS011;33163;0.000;0.000;2023-02-28T13:12:32;1.00;;;0.70;;
47413;SDS011;33163;0.000;0.000;2023-02-28T13:15:02;0.80;;;0.80;;
47413;SDS011;33163;0.000;0.000;2023-02-28T13:17:36;1.48;;;0.60;;
47413;SDS011;33163;0.000;0.000;2023-02-28T13:20:13;0.98;;;0.85;;
47413;SDS011;33163;0.000;0.000;2023-02-28T13:22:43;2.70;;;1.00;;
47413;SDS011;33163;0.000;0.000;2023-02-28T13:34:35;0.80;;;0.80;;
47413;SDS011;33163;0.000;0.000;2023-02-28T13:42:54;1.00;;;0.93;;
47413;SDS011;33163;0.000;0.000;2023-02-28T13:45:22;1.38;;;0.90;;
47413;SDS011;33163;0.000;0.000;2023-02-28T13:47:52;3.25;;;1.00;;
47413;SDS011;33163;0.000;0.000;2023-02-28T13:50:27;2.10;;;1.13;;
47413;SDS011;33163;0.000;0.000;2023-02-28T13:53:01;1.27;;;0.82;;
47413;SDS011;33163;0.000;0.000;2023-02-28T13:55:46;4.88;;;1.13;;
47413;SDS011;33163;0.000;0.000;2023-02-28T13:58:23;3.55;;;1.05;;
47413;SDS011;33163;0.000;0.000;2023-02-28T14:01:23;2.10;;;1.00;;
47413;SDS011;33163;0.000;0.000;2023-02-28T14:07:08;6.18;;;1.85;;
47413;SDS011;33163;0.000;0.000;2023-02-28T14:09:45;11.05;;;3.75;;
47413;SDS011;33163;0.000;0.000;2023-02-28T14:15:27;10.82;;;4.70;;
47413;SDS011;33163;0.000;0.000;2023-02-28T14:18:03;12.13;;;3.88;;
47413;SDS011;33163;0.000;0.000;2023-02-28T14:20:32;10.93;;;3.70;;
47413;SDS011;33163;0.000;0.000;2023-02-28T14:23:03;12.70;;;3.42;;
47413;SDS011;33163;0.000;0.000;2023-02-28T14:25:37;10.77;;;3.20;;
47413;SDS011;33163;0.000;0.000;2023-02-28T14:28:12;6.95;;;3.45;;
47413;SDS011;33163;0.000;0.000;2023-02-28T14:33:42;10.00;;;3.08;;
47413;SDS011;33163;0.000;0.000;2023-02-28T14:36:25;12.48;;;3.05;;
47413;SDS011;33163;0.000;0.000;2023-02-28T14:38:58;11.90;;;3.03;;
47413;SDS011;33163;0.000;0.000;2023-02-28T14:41:32;10.13;;;2.63;;
47413;SDS011;33163;0.000;0.000;2023-02-28T14:44:03;5.47;;;2.75;;
47413;SDS011;33163;0.000;0.000;2023-02-28T14:46:40;6.47;;;2.50;;
47413;SDS011;33163;0.000;0.000;2023-02-28T14:49:17;5.63;;;2.10;;
47413;SDS011;33163;0.000;0.000;2023-02-28T14:51:46;13.35;;;2.28;;
47413;SDS011;33163;0.000;0.000;2023-02-28T14:54:16;4.07;;;1.70;;
47413;SDS011;33163;0.000;0.000;2023-02-28T14:56:49;4.32;;;2.00;;
47413;SDS011;33163;0.000;0.000;2023-02-28T14:59:26;5.82;;;1.90;;
47413;SDS011;33163;0.000;0.000;2023-02-28T15:02:16;5.05;;;1.85;;
47413;SDS011;33163;0.000;0.000;2023-02-28T15:04:54;4.03;;;1.50;;
47413;SDS011;33163;0.000;0.000;2023-02-28T15:07:22;7.10;;;1.60;;
47413;SDS011;33163;0.000;0.000;2023-02-28T15:10:07;4.05;;;1.38;;
47413;SDS011;33163;0.000;0.000;2023-02-28T15:12:50;4.80;;;1.70;;
47413;SDS011;33163;0.000;0.000;2023-02-28T15:15:19;2.75;;;1.25;;
47413;SDS011;33163;0.000;0.000;2023-02-28T15:17:49;5.00;;;1.60;;
47413;SDS011;33163;0.000;0.000;2023-02-28T15:20:19;4.22;;;1.77;;
47413;SDS011;33163;0.000;0.000;2023-02-28T15:22:47;7.85;;;2.10;;
47413;SDS011;33163;0.000;0.000;2023-02-28T15:25:19;7.50;;;1.63;;
47413;SDS011;33163;0.000;0.000;2023-02-28T15:27:48;2.88;;;1.65;;
47413;SDS011;33163;0.000;0.000;2023-02-28T15:30:20;5.57;;;1.60;;
47413;SDS011;33163;0.000;0.000;2023-02-28T15:33:01;2.88;;;1.30;;
47413;SDS011;33163;0.000;0.000;2023-02-28T15:35:31;6.45;;;1.45;;
47413;SDS011;33163;0.000;0.000;2023-02-28T15:38:00;4.30;;;1.38;;
47413;SDS011;33163;0.000;0.000;2023-02-28T15:40:32;3.20;;;1.70;;
47413;SDS011;33163;0.000;0.000;2023-02-28T15:43:05;4.05;;;1.30;;
47413;SDS011;33163;0.000;0.000;2023-02-28T15:45:35;6.13;;;1.45;;
47413;SDS011;33163;0.000;0.000;2023-02-28T15:48:03;7.55;;;1.38;;
47413;SDS011;33163;0.000;0.000;2023-02-28T15:50:31;10.23;;;1.80;;
47413;SDS011;33163;0.000;0.000;2023-02-28T15:52:59;8.02;;;1.60;;
47413;SDS011;33163;0.000;0.000;2023-02-28T15:55:28;7.50;;;1.85;;
47413;SDS011;33163;0.000;0.000;2023-02-28T15:57:59;11.38;;;1.38;;
47413;SDS011;33163;0.000;0.000;2023-02-28T16:00:27;9.52;;;1.30;;
47413;SDS011;33163;0.000;0.000;2023-02-28T16:02:57;3.03;;;1.27;;